sensor_id;sensor_type;location;lat;lon;timestamp;P1;durP1;ratioP1;P2;durP2;ratioP2
57057;SDS011;55017;52.848;6.748;2023-03-14T00:01:22;136.20;;;130.38;;
57057;SDS011;55017;52.848;6.748;2023-03-14T00:03:48;134.80;;;129.02;;
57057;SDS011;55017;52.848;6.748;2023-03-14T00:06:15;134.60;;;128.65;;
57057;SDS011;55017;52.848;6.748;2023-03-14T00:08:42;137.98;;;132.02;;
57057;SDS011;55017;52.848;6.748;2023-03-14T00:11:13;138.05;;;131.98;;
57057;SDS011;55017;52.848;6.748;2023-03-14T00:13:39;138.57;;;132.65;;
57057;SDS011;55017;52.848;6.748;2023-03-14T00:16:06;135.85;;;130.23;;
57057;SDS011;55017;52.848;6.748;2023-03-14T00:18:33;136.70;;;131.15;;
57057;SDS011;55017;52.848;6.748;2023-03-14T00:20:59;139.18;;;133.05;;
57057;SDS011;55017;52.848;6.748;2023-03-14T00:23:26;135.77;;;129.90;;
57057;SDS011;55017;52.848;6.748;2023-03-14T00:25:53;137.82;;;131.88;;
57057;SDS011;55017;52.848;6.748;2023-03-14T00:28:19;130.63;;;124.90;;
57057;SDS011;55017;52.848;6.748;2023-03-14T00:30:45;134.00;;;127.68;;
57057;SDS011;55017;52.848;6.748;2023-03-14T00:33:11;137.98;;;131.73;;
57057;SDS011;55017;52.848;6.748;2023-03-14T00:35:37;140.63;;;134.60;;
57057;SDS011;55017;52.848;6.748;2023-03-14T00:38:03;135.52;;;130.13;;
57057;SDS011;55017;52.848;6.748;2023-03-14T00:40:29;141.73;;;135.68;;
57057;SDS011;55017;52.848;6.748;2023-03-14T00:42:54;137.68;;;131.85;;
57057;SDS011;55017;52.848;6.748;2023-03-14T00:45:20;137.95;;;132.15;;
57057;SDS011;55017;52.848;6.748;2023-03-14T00:47:46;137.90;;;132.15;;
57057;SDS011;55017;52.848;6.748;2023-03-14T00:50:12;138.07;;;132.38;;
57057;SDS011;55017;52.848;6.748;2023-03-14T00:52:38;133.45;;;128.40;;
57057;SDS011;55017;52.848;6.748;2023-03-14T00:55:05;137.43;;;131.73;;
57057;SDS011;55017;52.848;6.748;2023-03-14T00:57:31;138.30;;;132.77;;
57057;SDS011;55017;52.848;6.748;2023-03-14T00:59:57;138.25;;;132.80;;
57057;SDS011;55017;52.848;6.748;2023-03-14T01:02:22;132.50;;;127.18;;
57057;SDS011;55017;52.848;6.748;2023-03-14T01:04:49;133.35;;;127.78;;
57057;SDS011;55017;52.848;6.748;2023-03-14T01:07:15;131.15;;;125.85;;
57057;SDS011;55017;52.848;6.748;2023-03-14T01:09:41;136.73;;;131.27;;
57057;SDS011;55017;52.848;6.748;2023-03-14T01:12:07;138.80;;;133.35;;
57057;SDS011;55017;52.848;6.748;2023-03-14T01:14:33;133.90;;;128.40;;
57057;SDS011;55017;52.848;6.748;2023-03-14T01:17:00;135.60;;;130.52;;
57057;SDS011;55017;52.848;6.748;2023-03-14T01:19:27;135.98;;;130.73;;
57057;SDS011;55017;52.848;6.748;2023-03-14T01:21:53;132.00;;;126.97;;
57057;SDS011;55017;52.848;6.748;2023-03-14T01:24:19;135.82;;;130.38;;
57057;SDS011;55017;52.848;6.748;2023-03-14T01:26:45;133.90;;;128.40;;
57057;SDS011;55017;52.848;6.748;2023-03-14T01:29:12;134.90;;;129.70;;
57057;SDS011;55017;52.848;6.748;2023-03-14T01:31:38;137.65;;;132.27;;
57057;SDS011;55017;52.848;6.748;2023-03-14T01:34:04;139.50;;;133.50;;
57057;SDS011;55017;52.848;6.748;2023-03-14T01:36:30;137.95;;;132.32;;
57057;SDS011;55017;52.848;6.748;2023-03-14T01:38:56;133.38;;;127.97;;
57057;SDS011;55017;52.848;6.748;2023-03-14T01:41:23;133.80;;;128.65;;
57057;SDS011;55017;52.848;6.748;2023-03-14T01:43:49;133.32;;;127.55;;
57057;SDS011;55017;52.848;6.748;2023-03-14T01:46:24;137.02;;;131.50;;
57057;SDS011;55017;52.848;6.748;2023-03-14T01:48:55;134.02;;;128.68;;
57057;SDS011;55017;52.848;6.748;2023-03-14T01:53:55;138.07;;;132.23;;
57057;SDS011;55017;52.848;6.748;2023-03-14T01:56:24;137.40;;;131.68;;
57057;SDS011;55017;52.848;6.748;2023-03-14T01:58:50;135.00;;;129.20;;
57057;SDS011;55017;52.848;6.748;2023-03-14T02:01:18;134.32;;;129.18;;
57057;SDS011;55017;52.848;6.748;2023-03-14T02:03:53;133.05;;;127.43;;
57057;SDS011;55017;52.848;6.748;2023-03-14T02:06:21;132.27;;;126.70;;
57057;SDS011;55017;52.848;6.748;2023-03-14T02:08:48;133.57;;;127.93;;
57057;SDS011;55017;52.848;6.748;2023-03-14T02:11:14;134.50;;;129.20;;
57057;SDS011;55017;52.848;6.748;2023-03-14T02:13:40;137.10;;;131.45;;
57057;SDS011;55017;52.848;6.748;2023-03-14T02:16:07;134.20;;;128.75;;
57057;SDS011;55017;52.848;6.748;2023-03-14T02:18:33;134.60;;;129.40;;
57057;SDS011;55017;52.848;6.748;2023-03-14T02:23:33;136.23;;;130.52;;
57057;SDS011;55017;52.848;6.748;2023-03-14T02:26:03;136.10;;;130.55;;
57057;SDS011;55017;52.848;6.748;2023-03-14T02:28:31;136.15;;;130.52;;
57057;SDS011;55017;52.848;6.748;2023-03-14T02:30:57;135.55;;;129.52;;
57057;SDS011;55017;52.848;6.748;2023-03-14T02:33:23;136.70;;;131.18;;
57057;SDS011;55017;52.848;6.748;2023-03-14T02:35:53;134.57;;;128.88;;
57057;SDS011;55017;52.848;6.748;2023-03-14T02:40:47;138.20;;;132.40;;
57057;SDS011;55017;52.848;6.748;2023-03-14T02:43:14;135.40;;;130.18;;
57057;SDS011;55017;52.848;6.748;2023-03-14T02:45:41;139.50;;;133.88;;
57057;SDS011;55017;52.848;6.748;2023-03-14T02:50:53;135.95;;;130.25;;
57057;SDS011;55017;52.848;6.748;2023-03-14T02:53:21;137.38;;;131.32;;
57057;SDS011;55017;52.848;6.748;2023-03-14T02:55:47;137.95;;;132.63;;
57057;SDS011;55017;52.848;6.748;2023-03-14T02:58:13;132.32;;;127.13;;
57057;SDS011;55017;52.848;6.748;2023-03-14T03:00:39;134.77;;;129.75;;
57057;SDS011;55017;52.848;6.748;2023-03-14T03:03:05;135.98;;;130.77;;
57057;SDS011;55017;52.848;6.748;2023-03-14T03:05:32;133.85;;;129.10;;
57057;SDS011;55017;52.848;6.748;2023-03-14T03:07:58;131.65;;;126.82;;
57057;SDS011;55017;52.848;6.748;2023-03-14T03:10:24;135.02;;;129.80;;
57057;SDS011;55017;52.848;6.748;2023-03-14T03:12:50;133.50;;;128.75;;
57057;SDS011;55017;52.848;6.748;2023-03-14T03:15:17;132.43;;;127.72;;
57057;SDS011;55017;52.848;6.748;2023-03-14T03:17:43;134.55;;;129.73;;
57057;SDS011;55017;52.848;6.748;2023-03-14T03:20:09;133.10;;;128.20;;
57057;SDS011;55017;52.848;6.748;2023-03-14T03:22:36;132.35;;;127.60;;
57057;SDS011;55017;52.848;6.748;2023-03-14T03:25:05;131.82;;;126.72;;
57057;SDS011;55017;52.848;6.748;2023-03-14T03:27:32;130.25;;;125.25;;
57057;SDS011;55017;52.848;6.748;2023-03-14T03:29:58;131.38;;;126.85;;
57057;SDS011;55017;52.848;6.748;2023-03-14T03:32:25;135.85;;;130.95;;
57057;SDS011;55017;52.848;6.748;2023-03-14T03:34:51;134.88;;;129.93;;
57057;SDS011;55017;52.848;6.748;2023-03-14T03:37:17;133.55;;;128.70;;
57057;SDS011;55017;52.848;6.748;2023-03-14T03:39:43;134.77;;;129.77;;
57057;SDS011;55017;52.848;6.748;2023-03-14T03:42:09;137.77;;;132.60;;
57057;SDS011;55017;52.848;6.748;2023-03-14T03:44:36;134.10;;;128.60;;
57057;SDS011;55017;52.848;6.748;2023-03-14T03:47:02;136.95;;;132.05;;
57057;SDS011;55017;52.848;6.748;2023-03-14T03:49:28;138.23;;;133.35;;
57057;SDS011;55017;52.848;6.748;2023-03-14T03:51:55;135.73;;;130.45;;
57057;SDS011;55017;52.848;6.748;2023-03-14T03:54:21;134.95;;;129.55;;
57057;SDS011;55017;52.848;6.748;2023-03-14T03:56:47;136.65;;;131.68;;
57057;SDS011;55017;52.848;6.748;2023-03-14T03:59:13;136.13;;;131.18;;
57057;SDS011;55017;52.848;6.748;2023-03-14T04:01:39;134.55;;;129.52;;
57057;SDS011;55017;52.848;6.748;2023-03-14T04:04:05;134.65;;;130.05;;
57057;SDS011;55017;52.848;6.748;2023-03-14T04:06:31;134.65;;;129.77;;
57057;SDS011;55017;52.848;6.748;2023-03-14T04:08:57;132.77;;;127.72;;
57057;SDS011;55017;52.848;6.748;2023-03-14T04:11:23;130.80;;;125.68;;
57057;SDS011;55017;52.848;6.748;2023-03-14T04:13:49;135.13;;;129.82;;
57057;SDS011;55017;52.848;6.748;2023-03-14T04:16:20;132.55;;;127.22;;
57057;SDS011;55017;52.848;6.748;2023-03-14T04:18:46;133.27;;;128.55;;
57057;SDS011;55017;52.848;6.748;2023-03-14T04:21:12;136.95;;;131.65;;
57057;SDS011;55017;52.848;6.748;2023-03-14T04:23:39;131.88;;;127.20;;
57057;SDS011;55017;52.848;6.748;2023-03-14T04:26:05;137.90;;;132.73;;
57057;SDS011;55017;52.848;6.748;2023-03-14T04:28:31;136.93;;;131.93;;
57057;SDS011;55017;52.848;6.748;2023-03-14T04:30:57;135.38;;;130.38;;
57057;SDS011;55017;52.848;6.748;2023-03-14T04:33:23;132.63;;;127.67;;
57057;SDS011;55017;52.848;6.748;2023-03-14T04:35:52;132.38;;;127.25;;
57057;SDS011;55017;52.848;6.748;2023-03-14T04:38:18;135.55;;;130.65;;
57057;SDS011;55017;52.848;6.748;2023-03-14T04:40:44;136.15;;;131.30;;
57057;SDS011;55017;52.848;6.748;2023-03-14T04:43:11;134.40;;;129.63;;
57057;SDS011;55017;52.848;6.748;2023-03-14T04:45:40;132.43;;;127.72;;
57057;SDS011;55017;52.848;6.748;2023-03-14T04:48:06;139.02;;;133.85;;
57057;SDS011;55017;52.848;6.748;2023-03-14T04:50:33;138.40;;;133.13;;
57057;SDS011;55017;52.848;6.748;2023-03-14T04:52:59;135.82;;;130.90;;
57057;SDS011;55017;52.848;6.748;2023-03-14T04:55:25;137.07;;;131.57;;
57057;SDS011;55017;52.848;6.748;2023-03-14T04:57:51;138.43;;;133.07;;
57057;SDS011;55017;52.848;6.748;2023-03-14T05:00:17;138.82;;;133.35;;
57057;SDS011;55017;52.848;6.748;2023-03-14T05:02:45;134.10;;;129.15;;
57057;SDS011;55017;52.848;6.748;2023-03-14T05:05:11;135.68;;;130.43;;
57057;SDS011;55017;52.848;6.748;2023-03-14T05:07:37;134.25;;;129.10;;
57057;SDS011;55017;52.848;6.748;2023-03-14T05:10:04;134.03;;;129.00;;
57057;SDS011;55017;52.848;6.748;2023-03-14T05:12:30;138.55;;;133.55;;
57057;SDS011;55017;52.848;6.748;2023-03-14T05:14:56;135.48;;;130.27;;
57057;SDS011;55017;52.848;6.748;2023-03-14T05:17:21;131.73;;;126.93;;
57057;SDS011;55017;52.848;6.748;2023-03-14T05:19:47;136.50;;;131.35;;
57057;SDS011;55017;52.848;6.748;2023-03-14T05:22:13;138.07;;;133.20;;
57057;SDS011;55017;52.848;6.748;2023-03-14T05:24:39;136.25;;;131.35;;
57057;SDS011;55017;52.848;6.748;2023-03-14T05:27:05;140.15;;;134.82;;
57057;SDS011;55017;52.848;6.748;2023-03-14T05:29:31;137.20;;;132.20;;
57057;SDS011;55017;52.848;6.748;2023-03-14T05:31:57;131.27;;;126.60;;
57057;SDS011;55017;52.848;6.748;2023-03-14T05:34:23;136.77;;;131.88;;
57057;SDS011;55017;52.848;6.748;2023-03-14T05:36:49;135.77;;;130.90;;
57057;SDS011;55017;52.848;6.748;2023-03-14T05:39:15;138.73;;;133.52;;
57057;SDS011;55017;52.848;6.748;2023-03-14T05:41:41;136.45;;;131.38;;
57057;SDS011;55017;52.848;6.748;2023-03-14T05:44:07;133.15;;;128.32;;
57057;SDS011;55017;52.848;6.748;2023-03-14T05:46:33;135.32;;;130.43;;
57057;SDS011;55017;52.848;6.748;2023-03-14T05:48:59;136.65;;;131.68;;
57057;SDS011;55017;52.848;6.748;2023-03-14T05:51:26;136.23;;;131.10;;
57057;SDS011;55017;52.848;6.748;2023-03-14T05:53:51;137.75;;;132.32;;
57057;SDS011;55017;52.848;6.748;2023-03-14T05:56:19;135.82;;;130.48;;
57057;SDS011;55017;52.848;6.748;2023-03-14T05:58:45;137.45;;;132.10;;
57057;SDS011;55017;52.848;6.748;2023-03-14T06:01:11;134.80;;;129.48;;
57057;SDS011;55017;52.848;6.748;2023-03-14T06:03:37;135.00;;;130.07;;
57057;SDS011;55017;52.848;6.748;2023-03-14T06:06:03;135.45;;;130.27;;
57057;SDS011;55017;52.848;6.748;2023-03-14T06:08:29;135.35;;;130.18;;
57057;SDS011;55017;52.848;6.748;2023-03-14T06:10:56;137.48;;;132.35;;
57057;SDS011;55017;52.848;6.748;2023-03-14T06:13:22;137.50;;;132.48;;
57057;SDS011;55017;52.848;6.748;2023-03-14T06:15:48;136.65;;;131.57;;
57057;SDS011;55017;52.848;6.748;2023-03-14T06:18:14;136.32;;;131.00;;
57057;SDS011;55017;52.848;6.748;2023-03-14T06:20:40;136.73;;;131.82;;
57057;SDS011;55017;52.848;6.748;2023-03-14T06:23:06;138.35;;;133.18;;
57057;SDS011;55017;52.848;6.748;2023-03-14T06:25:33;136.88;;;131.50;;
57057;SDS011;55017;52.848;6.748;2023-03-14T06:27:59;135.05;;;129.85;;
57057;SDS011;55017;52.848;6.748;2023-03-14T06:30:25;134.57;;;129.52;;
57057;SDS011;55017;52.848;6.748;2023-03-14T06:32:51;140.10;;;134.75;;
57057;SDS011;55017;52.848;6.748;2023-03-14T06:35:17;142.68;;;137.10;;
57057;SDS011;55017;52.848;6.748;2023-03-14T06:37:43;133.30;;;128.45;;
57057;SDS011;55017;52.848;6.748;2023-03-14T06:40:10;135.35;;;130.45;;
57057;SDS011;55017;52.848;6.748;2023-03-14T06:42:37;133.48;;;128.48;;
57057;SDS011;55017;52.848;6.748;2023-03-14T06:45:03;135.77;;;130.98;;
57057;SDS011;55017;52.848;6.748;2023-03-14T06:47:29;132.15;;;127.22;;
57057;SDS011;55017;52.848;6.748;2023-03-14T06:49:55;135.57;;;130.65;;
57057;SDS011;55017;52.848;6.748;2023-03-14T06:52:21;139.07;;;134.25;;
57057;SDS011;55017;52.848;6.748;2023-03-14T06:54:47;135.65;;;130.35;;
57057;SDS011;55017;52.848;6.748;2023-03-14T06:57:13;136.93;;;132.05;;
57057;SDS011;55017;52.848;6.748;2023-03-14T06:59:39;134.73;;;129.50;;
57057;SDS011;55017;52.848;6.748;2023-03-14T07:02:07;131.43;;;126.38;;
57057;SDS011;55017;52.848;6.748;2023-03-14T07:04:33;131.35;;;126.40;;
57057;SDS011;55017;52.848;6.748;2023-03-14T07:06:59;133.82;;;128.82;;
57057;SDS011;55017;52.848;6.748;2023-03-14T07:09:25;134.90;;;130.00;;
57057;SDS011;55017;52.848;6.748;2023-03-14T07:11:51;137.32;;;132.43;;
57057;SDS011;55017;52.848;6.748;2023-03-14T07:14:17;138.77;;;133.88;;
57057;SDS011;55017;52.848;6.748;2023-03-14T07:16:43;142.15;;;136.95;;
57057;SDS011;55017;52.848;6.748;2023-03-14T07:19:10;138.02;;;132.93;;
57057;SDS011;55017;52.848;6.748;2023-03-14T07:21:36;139.15;;;134.18;;
57057;SDS011;55017;52.848;6.748;2023-03-14T07:24:02;133.18;;;128.48;;
57057;SDS011;55017;52.848;6.748;2023-03-14T07:26:28;137.57;;;132.77;;
57057;SDS011;55017;52.848;6.748;2023-03-14T07:28:54;135.32;;;130.48;;
57057;SDS011;55017;52.848;6.748;2023-03-14T07:31:21;136.88;;;131.85;;
57057;SDS011;55017;52.848;6.748;2023-03-14T07:33:47;134.25;;;129.63;;
57057;SDS011;55017;52.848;6.748;2023-03-14T07:36:13;135.10;;;130.43;;
57057;SDS011;55017;52.848;6.748;2023-03-14T07:38:39;134.55;;;130.13;;
57057;SDS011;55017;52.848;6.748;2023-03-14T07:41:05;134.15;;;129.68;;
57057;SDS011;55017;52.848;6.748;2023-03-14T07:43:31;129.05;;;124.85;;
57057;SDS011;55017;52.848;6.748;2023-03-14T07:45:58;133.43;;;129.23;;
57057;SDS011;55017;52.848;6.748;2023-03-14T07:48:24;135.60;;;131.15;;
57057;SDS011;55017;52.848;6.748;2023-03-14T07:50:52;130.90;;;126.50;;
57057;SDS011;55017;52.848;6.748;2023-03-14T07:53:18;134.73;;;130.20;;
57057;SDS011;55017;52.848;6.748;2023-03-14T07:55:44;133.80;;;129.32;;
57057;SDS011;55017;52.848;6.748;2023-03-14T07:58:11;130.75;;;126.38;;
57057;SDS011;55017;52.848;6.748;2023-03-14T08:00:37;128.82;;;124.40;;
57057;SDS011;55017;52.848;6.748;2023-03-14T08:03:03;132.63;;;128.40;;
57057;SDS011;55017;52.848;6.748;2023-03-14T08:05:29;133.52;;;129.25;;
57057;SDS011;55017;52.848;6.748;2023-03-14T08:07:55;132.00;;;127.60;;
57057;SDS011;55017;52.848;6.748;2023-03-14T08:10:21;132.68;;;128.32;;
57057;SDS011;55017;52.848;6.748;2023-03-14T08:12:50;133.68;;;129.27;;
57057;SDS011;55017;52.848;6.748;2023-03-14T08:15:16;135.25;;;130.77;;
57057;SDS011;55017;52.848;6.748;2023-03-14T08:17:42;133.70;;;129.30;;
57057;SDS011;55017;52.848;6.748;2023-03-14T08:20:08;131.35;;;127.25;;
57057;SDS011;55017;52.848;6.748;2023-03-14T08:22:36;131.10;;;126.95;;
57057;SDS011;55017;52.848;6.748;2023-03-14T08:25:03;132.15;;;128.02;;
57057;SDS011;55017;52.848;6.748;2023-03-14T08:27:29;130.50;;;126.40;;
57057;SDS011;55017;52.848;6.748;2023-03-14T08:29:55;132.10;;;128.07;;
57057;SDS011;55017;52.848;6.748;2023-03-14T08:32:21;131.73;;;127.53;;
57057;SDS011;55017;52.848;6.748;2023-03-14T08:34:48;131.93;;;127.85;;
57057;SDS011;55017;52.848;6.748;2023-03-14T08:37:14;129.85;;;125.70;;
57057;SDS011;55017;52.848;6.748;2023-03-14T08:39:41;135.10;;;130.85;;
57057;SDS011;55017;52.848;6.748;2023-03-14T08:42:06;127.43;;;123.32;;
57057;SDS011;55017;52.848;6.748;2023-03-14T08:44:32;131.90;;;127.80;;
57057;SDS011;55017;52.848;6.748;2023-03-14T08:46:58;136.75;;;132.38;;
57057;SDS011;55017;52.848;6.748;2023-03-14T08:49:24;129.95;;;125.85;;
57057;SDS011;55017;52.848;6.748;2023-03-14T08:51:50;135.52;;;131.30;;
57057;SDS011;55017;52.848;6.748;2023-03-14T08:54:16;133.45;;;129.27;;
57057;SDS011;55017;52.848;6.748;2023-03-14T08:56:43;133.13;;;128.93;;
57057;SDS011;55017;52.848;6.748;2023-03-14T08:59:09;133.05;;;128.88;;
57057;SDS011;55017;52.848;6.748;2023-03-14T09:01:36;132.95;;;128.45;;
57057;SDS011;55017;52.848;6.748;2023-03-14T09:04:02;130.20;;;125.97;;
57057;SDS011;55017;52.848;6.748;2023-03-14T09:06:28;129.48;;;125.30;;
57057;SDS011;55017;52.848;6.748;2023-03-14T09:08:54;136.52;;;132.02;;
57057;SDS011;55017;52.848;6.748;2023-03-14T09:11:19;131.38;;;127.13;;
57057;SDS011;55017;52.848;6.748;2023-03-14T09:13:45;127.45;;;123.28;;
57057;SDS011;55017;52.848;6.748;2023-03-14T09:16:12;127.43;;;123.43;;
57057;SDS011;55017;52.848;6.748;2023-03-14T09:18:38;132.48;;;128.27;;
57057;SDS011;55017;52.848;6.748;2023-03-14T09:21:04;130.85;;;126.55;;
57057;SDS011;55017;52.848;6.748;2023-03-14T09:23:30;130.85;;;126.55;;
57057;SDS011;55017;52.848;6.748;2023-03-14T09:25:59;131.07;;;126.45;;
57057;SDS011;55017;52.848;6.748;2023-03-14T09:28:26;133.20;;;128.70;;
57057;SDS011;55017;52.848;6.748;2023-03-14T09:30:52;130.55;;;126.10;;
57057;SDS011;55017;52.848;6.748;2023-03-14T09:33:19;134.85;;;130.02;;
57057;SDS011;55017;52.848;6.748;2023-03-14T09:35:45;130.10;;;125.50;;
57057;SDS011;55017;52.848;6.748;2023-03-14T09:38:12;135.63;;;130.93;;
57057;SDS011;55017;52.848;6.748;2023-03-14T09:40:40;134.70;;;129.98;;
57057;SDS011;55017;52.848;6.748;2023-03-14T09:43:08;135.77;;;131.27;;
57057;SDS011;55017;52.848;6.748;2023-03-14T09:45:38;138.35;;;133.13;;
57057;SDS011;55017;52.848;6.748;2023-03-14T09:48:05;137.30;;;132.35;;
57057;SDS011;55017;52.848;6.748;2023-03-14T09:50:42;135.05;;;130.07;;
57057;SDS011;55017;52.848;6.748;2023-03-14T09:53:34;135.65;;;130.50;;
57057;SDS011;55017;52.848;6.748;2023-03-14T09:55:54;136.18;;;130.95;;
57057;SDS011;55017;52.848;6.748;2023-03-14T09:58:23;134.93;;;129.77;;
57057;SDS011;55017;52.848;6.748;2023-03-14T10:00:50;134.75;;;129.75;;
57057;SDS011;55017;52.848;6.748;2023-03-14T10:03:25;138.63;;;133.20;;
57057;SDS011;55017;52.848;6.748;2023-03-14T10:06:54;135.02;;;130.60;;
57057;SDS011;55017;52.848;6.748;2023-03-14T10:11:03;129.13;;;124.07;;
57057;SDS011;55017;52.848;6.748;2023-03-14T10:13:29;127.00;;;122.80;;
57057;SDS011;55017;52.848;6.748;2023-03-14T10:15:55;124.57;;;120.45;;
57057;SDS011;55017;52.848;6.748;2023-03-14T10:18:25;125.32;;;121.00;;
57057;SDS011;55017;52.848;6.748;2023-03-14T10:23:54;118.40;;;114.32;;
57057;SDS011;55017;52.848;6.748;2023-03-14T10:26:31;122.57;;;118.28;;
57057;SDS011;55017;52.848;6.748;2023-03-14T10:29:03;114.05;;;110.20;;
57057;SDS011;55017;52.848;6.748;2023-03-14T10:31:46;115.75;;;111.65;;
57057;SDS011;55017;52.848;6.748;2023-03-14T10:34:24;116.03;;;111.93;;
57057;SDS011;55017;52.848;6.748;2023-03-14T10:36:59;113.43;;;109.43;;
57057;SDS011;55017;52.848;6.748;2023-03-14T10:44:44;115.63;;;111.60;;
57057;SDS011;55017;52.848;6.748;2023-03-14T10:47:18;114.25;;;110.35;;
57057;SDS011;55017;52.848;6.748;2023-03-14T10:49:47;115.30;;;111.47;;
57057;SDS011;55017;52.848;6.748;2023-03-14T10:54:47;119.22;;;115.05;;
57057;SDS011;55017;52.848;6.748;2023-03-14T10:57:13;114.00;;;110.03;;
57057;SDS011;55017;52.848;6.748;2023-03-14T10:59:39;113.43;;;109.43;;
57057;SDS011;55017;52.848;6.748;2023-03-14T11:02:18;115.35;;;111.38;;
57057;SDS011;55017;52.848;6.748;2023-03-14T11:07:52;115.75;;;111.80;;
57057;SDS011;55017;52.848;6.748;2023-03-14T11:16:06;114.05;;;110.15;;
57057;SDS011;55017;52.848;6.748;2023-03-14T11:18:36;114.47;;;110.22;;
57057;SDS011;55017;52.848;6.748;2023-03-14T11:29:41;114.60;;;110.72;;
57057;SDS011;55017;52.848;6.748;2023-03-14T11:32:23;114.72;;;110.80;;
57057;SDS011;55017;52.848;6.748;2023-03-14T11:34:53;115.78;;;111.68;;
57057;SDS011;55017;52.848;6.748;2023-03-14T11:37:27;113.43;;;109.43;;
57057;SDS011;55017;52.848;6.748;2023-03-14T11:42:26;113.93;;;109.90;;
57057;SDS011;55017;52.848;6.748;2023-03-14T11:44:53;112.30;;;108.32;;
57057;SDS011;55017;52.848;6.748;2023-03-14T11:47:22;117.93;;;113.60;;
57057;SDS011;55017;52.848;6.748;2023-03-14T11:50:01;115.60;;;111.30;;
57057;SDS011;55017;52.848;6.748;2023-03-14T11:52:37;116.30;;;112.30;;
57057;SDS011;55017;52.848;6.748;2023-03-14T11:57:46;115.88;;;111.97;;
57057;SDS011;55017;52.848;6.748;2023-03-14T12:00:17;119.10;;;114.82;;
57057;SDS011;55017;52.848;6.748;2023-03-14T12:08:50;114.65;;;110.22;;
57057;SDS011;55017;52.848;6.748;2023-03-14T12:14:22;117.45;;;113.45;;
57057;SDS011;55017;52.848;6.748;2023-03-14T12:17:34;107.05;;;103.55;;
57057;SDS011;55017;52.848;6.748;2023-03-14T12:19:39;105.70;;;102.20;;
57057;SDS011;55017;52.848;6.748;2023-03-14T12:22:25;105.13;;;101.47;;
57057;SDS011;55017;52.848;6.748;2023-03-14T12:24:55;104.80;;;101.22;;
57057;SDS011;55017;52.848;6.748;2023-03-14T12:30:33;109.97;;;106.28;;
57057;SDS011;55017;52.848;6.748;2023-03-14T12:35:39;112.85;;;108.88;;
57057;SDS011;55017;52.848;6.748;2023-03-14T12:38:08;111.55;;;107.65;;
57057;SDS011;55017;52.848;6.748;2023-03-14T12:40:53;113.65;;;109.68;;
57057;SDS011;55017;52.848;6.748;2023-03-14T12:43:31;115.93;;;112.03;;
57057;SDS011;55017;52.848;6.748;2023-03-14T12:48:55;114.18;;;110.38;;
57057;SDS011;55017;52.848;6.748;2023-03-14T12:51:34;112.43;;;108.72;;
57057;SDS011;55017;52.848;6.748;2023-03-14T12:54:10;113.88;;;110.18;;
57057;SDS011;55017;52.848;6.748;2023-03-14T13:05:26;115.03;;;111.18;;
57057;SDS011;55017;52.848;6.748;2023-03-14T13:15:24;117.22;;;113.13;;
57057;SDS011;55017;52.848;6.748;2023-03-14T13:17:51;118.38;;;114.35;;
57057;SDS011;55017;52.848;6.748;2023-03-14T13:20:26;118.97;;;115.03;;
57057;SDS011;55017;52.848;6.748;2023-03-14T13:22:55;115.75;;;111.95;;
57057;SDS011;55017;52.848;6.748;2023-03-14T13:25:21;109.38;;;105.65;;
57057;SDS011;55017;52.848;6.748;2023-03-14T13:27:48;109.25;;;105.65;;
57057;SDS011;55017;52.848;6.748;2023-03-14T13:32:46;104.53;;;101.07;;
57057;SDS011;55017;52.848;6.748;2023-03-14T13:35:18;104.70;;;101.15;;
57057;SDS011;55017;52.848;6.748;2023-03-14T13:37:46;99.13;;;95.75;;
57057;SDS011;55017;52.848;6.748;2023-03-14T13:40:19;110.15;;;101.18;;
57057;SDS011;55017;52.848;6.748;2023-03-14T13:42:45;102.63;;;98.32;;
57057;SDS011;55017;52.848;6.748;2023-03-14T13:45:12;101.28;;;97.10;;
57057;SDS011;55017;52.848;6.748;2023-03-14T13:49:30;104.13;;;100.15;;
57057;SDS011;55017;52.848;6.748;2023-03-14T13:52:00;105.72;;;102.03;;
57057;SDS011;55017;52.848;6.748;2023-03-14T13:54:26;103.88;;;100.22;;
57057;SDS011;55017;52.848;6.748;2023-03-14T13:57:03;108.15;;;104.35;;
57057;SDS011;55017;52.848;6.748;2023-03-14T13:59:30;114.30;;;110.40;;
57057;SDS011;55017;52.848;6.748;2023-03-14T14:01:57;113.82;;;110.03;;
57057;SDS011;55017;52.848;6.748;2023-03-14T14:04:24;117.18;;;113.30;;
57057;SDS011;55017;52.848;6.748;2023-03-14T14:07:01;115.30;;;111.35;;
57057;SDS011;55017;52.848;6.748;2023-03-14T14:09:39;120.50;;;116.22;;
57057;SDS011;55017;52.848;6.748;2023-03-14T14:12:05;120.50;;;116.47;;
57057;SDS011;55017;52.848;6.748;2023-03-14T14:14:36;120.75;;;116.63;;
57057;SDS011;55017;52.848;6.748;2023-03-14T14:17:05;120.20;;;116.10;;
57057;SDS011;55017;52.848;6.748;2023-03-14T14:19:32;118.45;;;114.35;;
57057;SDS011;55017;52.848;6.748;2023-03-14T14:21:59;120.15;;;115.85;;
57057;SDS011;55017;52.848;6.748;2023-03-14T14:24:28;122.07;;;117.85;;
57057;SDS011;55017;52.848;6.748;2023-03-14T14:27:16;123.80;;;119.60;;
57057;SDS011;55017;52.848;6.748;2023-03-14T14:29:42;122.97;;;118.70;;
57057;SDS011;55017;52.848;6.748;2023-03-14T14:32:11;121.45;;;117.43;;
57057;SDS011;55017;52.848;6.748;2023-03-14T14:34:44;125.20;;;120.63;;
57057;SDS011;55017;52.848;6.748;2023-03-14T14:37:23;120.93;;;116.72;;
57057;SDS011;55017;52.848;6.748;2023-03-14T14:39:50;119.13;;;115.10;;
57057;SDS011;55017;52.848;6.748;2023-03-14T14:42:18;123.07;;;118.82;;
57057;SDS011;55017;52.848;6.748;2023-03-14T14:44:47;123.30;;;119.10;;
57057;SDS011;55017;52.848;6.748;2023-03-14T14:47:15;127.72;;;123.32;;
57057;SDS011;55017;52.848;6.748;2023-03-14T14:49:43;127.18;;;122.97;;
57057;SDS011;55017;52.848;6.748;2023-03-14T14:54:42;128.07;;;123.72;;
57057;SDS011;55017;52.848;6.748;2023-03-14T14:57:18;126.05;;;121.85;;
57057;SDS011;55017;52.848;6.748;2023-03-14T14:59:45;124.60;;;120.03;;
57057;SDS011;55017;52.848;6.748;2023-03-14T15:02:58;126.32;;;122.18;;
57057;SDS011;55017;52.848;6.748;2023-03-14T15:05:11;125.88;;;121.53;;
57057;SDS011;55017;52.848;6.748;2023-03-14T15:07:38;124.25;;;119.93;;
57057;SDS011;55017;52.848;6.748;2023-03-14T15:10:04;122.88;;;118.50;;
57057;SDS011;55017;52.848;6.748;2023-03-14T15:12:30;128.18;;;123.65;;
57057;SDS011;55017;52.848;6.748;2023-03-14T15:14:56;127.72;;;123.43;;
57057;SDS011;55017;52.848;6.748;2023-03-14T15:17:22;126.93;;;122.57;;
57057;SDS011;55017;52.848;6.748;2023-03-14T15:19:49;129.82;;;125.28;;
57057;SDS011;55017;52.848;6.748;2023-03-14T15:22:15;125.38;;;121.03;;
57057;SDS011;55017;52.848;6.748;2023-03-14T15:24:41;128.18;;;123.65;;
57057;SDS011;55017;52.848;6.748;2023-03-14T15:27:13;123.60;;;119.20;;